Time;durP1;ratioP1;P1;durP2;ratioP2;P2;SDS_P1;SDS_P2;PMS_P1;PMS_P2;Temp;Humidity;BMP_temperature;BMP_pressure;BME280_temperature;BME280_humidity;BME280_pressure;Samples;Min_cycle;Max_cycle;Signal;HPM_P1;HPM_P2
2021/06/13 00:00:48;;;;;;;1.20;1.20;;;25.90;46.40;;;;;;5046381;28;20588;-62
2021/06/13 00:03:15;;;;;;;1.20;1.20;;;25.90;46.40;;;;;;5046496;28;20513;-62
2021/06/13 00:05:42;;;;;;;1.60;1.50;;;25.90;46.50;;;;;;5046476;28;20088;-62
2021/06/13 00:08:09;;;;;;;1.23;1.23;;;25.90;46.50;;;;;;5046184;28;20589;-62
2021/06/13 00:10:36;;;;;;;1.73;1.63;;;25.90;46.60;;;;;;5046445;28;20489;-62
2021/06/13 00:13:04;;;;;;;1.20;1.20;;;25.90;46.70;;;;;;5046552;28;20098;-62
2021/06/13 00:15:31;;;;;;;1.08;1.08;;;25.90;46.80;;;;;;5046024;28;20131;-62
2021/06/13 00:17:59;;;;;;;1.85;1.75;;;25.90;46.80;;;;;;5046539;28;20080;-62
2021/06/13 00:20:29;;;;;;;3.13;1.30;;;25.90;46.80;;;;;;5046213;28;20536;-62
2021/06/13 00:22:56;;;;;;;;;;;25.90;46.90;;;;;;5045454;28;20577;-62
2021/06/13 00:25:25;;;;;;;1.50;1.40;;;25.90;46.90;;;;;;5046521;28;19921;-61
2021/06/13 00:27:52;;;;;;;1.10;1.10;;;25.90;46.90;;;;;;5046003;28;20124;-62
2021/06/13 00:30:21;;;;;;;1.15;1.15;;;25.90;46.90;;;;;;5046026;28;20521;-62
2021/06/13 00:32:48;;;;;;;1.48;1.40;;;25.90;46.90;;;;;;5046010;28;20124;-62
2021/06/13 00:35:17;;;;;;;1.40;1.40;;;25.90;46.90;;;;;;5046185;28;20139;-62
2021/06/13 00:37:45;;;;;;;1.08;1.08;;;25.90;46.90;;;;;;5045587;28;20562;-62
2021/06/13 00:40:21;;;;;;;1.08;1.08;;;25.90;46.90;;;;;;5046336;28;20049;-62
2021/06/13 00:42:48;;;;;;;0.97;0.97;;;25.90;46.90;;;;;;5045861;28;20174;-62
2021/06/13 00:45:16;;;;;;;1.30;1.30;;;25.90;46.90;;;;;;5046254;28;20080;-62
2021/06/13 00:47:43;;;;;;;1.85;0.98;;;25.90;46.90;;;;;;5046351;28;20083;-62
2021/06/13 00:50:32;;;;;;;3.83;1.60;;;25.90;46.90;;;;;;5045851;28;20049;-62
2021/06/13 00:53:00;;;;;;;1.13;1.13;;;25.90;46.90;;;;;;5045653;28;20486;-62
2021/06/13 00:55:28;;;;;;;1.60;1.50;;;25.90;46.90;;;;;;5046141;28;20110;-62
2021/06/13 00:57:55;;;;;;;1.25;1.25;;;25.90;46.90;;;;;;5045107;28;20088;-62
2021/06/13 01:00:23;;;;;;;1.48;1.42;;;25.90;46.90;;;;;;5044928;28;20131;-62
2021/06/13 01:02:50;;;;;;;1.42;1.33;;;25.90;46.90;;;;;;5045265;28;20448;-62
2021/06/13 01:05:17;;;;;;;1.10;1.10;;;25.90;46.90;;;;;;5045651;28;20092;-61
2021/06/13 01:08:06;;;;;;;1.33;1.33;;;25.90;46.90;;;;;;5045687;28;20084;-62
2021/06/13 01:10:44;;;;;;;1.20;1.20;;;25.90;46.90;;;;;;5045668;28;20052;-62
2021/06/13 01:13:37;;;;;;;2.28;1.40;;;25.90;46.90;;;;;;5045059;28;20447;-62
2021/06/13 01:16:14;;;;;;;1.20;1.20;;;25.80;46.90;;;;;;5045762;28;20139;-62
2021/06/13 01:19:01;;;;;;;1.17;1.17;;;25.80;46.90;;;;;;5045133;28;20132;-62
2021/06/13 01:22:01;;;;;;;1.48;1.33;;;25.80;46.90;;;;;;5045816;28;20638;-62
2021/06/13 01:24:48;;;;;;;1.05;1.05;;;25.90;47.00;;;;;;5045464;28;20045;-62
2021/06/13 01:27:40;;;;;;;1.00;1.00;;;25.80;46.90;;;;;;5045445;28;20053;-62
2021/06/13 01:30:08;;;;;;;1.10;1.10;;;25.80;46.90;;;;;;5044718;28;20139;-62
2021/06/13 01:32:36;;;;;;;1.00;1.00;;;25.80;46.90;;;;;;5045645;28;20410;-62
2021/06/13 01:35:07;;;;;;;1.30;1.20;;;25.80;46.90;;;;;;5045373;28;20053;-62
2021/06/13 01:37:37;;;;;;;1.67;1.38;;;25.80;46.90;;;;;;5045058;28;20509;-62
2021/06/13 01:40:09;;;;;;;1.20;1.20;;;25.90;47.00;;;;;;5045226;28;20084;-62
2021/06/13 01:42:38;;;;;;;1.42;1.33;;;25.80;46.90;;;;;;5044174;28;20076;-62
2021/06/13 01:45:08;;;;;;;1.02;1.02;;;25.80;46.90;;;;;;5045333;28;20051;-62
2021/06/13 01:47:37;;;;;;;1.35;1.25;;;25.80;46.90;;;;;;5027222;28;20045;-62
2021/06/13 01:50:06;;;;;;;1.10;1.10;;;25.80;46.80;;;;;;5045277;28;20379;-62
2021/06/13 01:52:35;;;;;;;0.95;0.95;;;25.80;46.90;;;;;;5045259;28;20215;-62
2021/06/13 01:55:04;;;;;;;1.42;1.42;;;25.80;46.80;;;;;;5044902;28;20045;-62
2021/06/13 01:57:31;;;;;;;1.30;1.20;;;25.80;46.90;;;;;;5045081;28;20076;-62
2021/06/13 01:59:59;;;;;;;1.15;1.10;;;25.80;46.90;;;;;;5045189;28;20132;-62
2021/06/13 02:02:27;;;;;;;1.88;1.45;;;25.80;46.80;;;;;;5044564;28;20055;-62
2021/06/13 02:04:55;;;;;;;1.10;1.10;;;25.80;46.90;;;;;;5044816;28;20513;-62
2021/06/13 02:07:24;;;;;;;1.38;1.35;;;25.80;46.90;;;;;;5027596;28;20160;-62
2021/06/13 02:09:52;;;;;;;1.40;1.30;;;25.80;46.90;;;;;;5044598;28;20131;-62
2021/06/13 02:12:19;;;;;;;1.15;1.13;;;25.80;46.90;;;;;;5045635;28;20079;-62
2021/06/13 02:14:48;;;;;;;0.98;0.98;;;25.80;46.90;;;;;;5044597;28;20049;-62
2021/06/13 02:17:16;;;;;;;2.00;1.02;;;25.80;46.90;;;;;;5044919;28;20053;-62
2021/06/13 02:19:45;;;;;;;1.17;1.17;;;25.80;46.90;;;;;;5045179;28;20879;-62
2021/06/13 02:22:14;;;;;;;1.20;1.20;;;25.80;47.00;;;;;;5045464;28;20136;-62
2021/06/13 02:24:43;;;;;;;0.80;0.80;;;25.80;46.90;;;;;;5048505;28;20476;-62
2021/06/13 02:27:14;;;;;;;1.17;1.10;;;25.80;46.90;;;;;;5048344;28;20139;-62
2021/06/13 02:29:43;;;;;;;0.95;0.95;;;25.80;47.00;;;;;;5048067;28;20324;-62
2021/06/13 02:32:11;;;;;;;0.90;0.90;;;25.80;47.00;;;;;;5048479;28;20500;-62
2021/06/13 02:34:39;;;;;;;1.10;1.10;;;25.80;47.00;;;;;;5047966;28;20131;-62
2021/06/13 02:37:08;;;;;;;1.30;1.30;;;25.80;47.10;;;;;;5031180;28;20072;-62
2021/06/13 02:39:39;;;;;;;1.30;1.30;;;25.80;47.10;;;;;;5047712;28;20049;-62
2021/06/13 02:42:06;;;;;;;5.30;1.70;;;25.80;47.10;;;;;;5048830;28;20164;-62
2021/06/13 02:44:34;;;;;;;0.98;0.98;;;25.80;47.20;;;;;;5047495;28;20045;-62
2021/06/13 02:47:01;;;;;;;1.40;1.35;;;25.80;47.20;;;;;;5048310;28;20151;-62
2021/06/13 02:49:29;;;;;;;1.20;1.20;;;25.80;47.30;;;;;;5047753;28;20461;-62
2021/06/13 02:52:24;;;;;;;1.30;1.20;;;25.80;47.30;;;;;;5047436;28;20099;-62
2021/06/13 02:54:58;;;;;;;1.63;1.23;;;25.80;47.30;;;;;;5047076;28;20060;-62
2021/06/13 02:57:31;;;;;;;1.08;1.08;;;25.70;47.30;;;;;;5048040;28;20052;-62
2021/06/13 03:00:04;;;;;;;1.42;1.33;;;25.80;47.40;;;;;;5047779;28;20051;-62
2021/06/13 03:02:34;;;;;;;1.20;1.20;;;25.70;47.30;;;;;;5048030;28;20104;-62
2021/06/13 03:05:04;;;;;;;1.10;1.10;;;25.70;47.40;;;;;;5046908;28;20613;-62
2021/06/13 03:07:32;;;;;;;1.23;1.20;;;25.70;47.30;;;;;;5048038;28;20060;-62
2021/06/13 03:10:03;;;;;;;1.05;1.05;;;25.70;47.30;;;;;;5047416;28;20041;-62
2021/06/13 03:12:31;;;;;;;1.10;1.10;;;25.70;47.30;;;;;;5048097;28;20124;-62
2021/06/13 03:15:00;;;;;;;1.10;1.05;;;25.70;47.30;;;;;;5047273;28;20055;-62
2021/06/13 03:17:28;;;;;;;1.83;1.42;;;25.70;47.30;;;;;;5047300;28;20144;-62
2021/06/13 03:19:56;;;;;;;1.15;1.15;;;25.70;47.40;;;;;;5047396;28;20681;-63
2021/06/13 03:22:24;;;;;;;1.23;1.23;;;25.70;47.40;;;;;;5047729;28;20885;-62
2021/06/13 03:24:52;;;;;;;1.30;1.30;;;25.70;47.40;;;;;;5047507;28;20053;-62
2021/06/13 03:27:20;;;;;;;1.17;1.17;;;25.80;47.50;;;;;;5047228;28;20151;-62
2021/06/13 03:29:50;;;;;;;2.15;1.20;;;25.80;47.50;;;;;;5047072;28;20136;-62
2021/06/13 03:32:18;;;;;;;1.15;1.15;;;25.80;47.40;;;;;;5046989;28;20483;-62
2021/06/13 03:34:45;;;;;;;1.02;1.02;;;25.80;47.40;;;;;;5046286;28;20517;-62
2021/06/13 03:37:14;;;;;;;0.93;0.93;;;25.80;47.40;;;;;;5047603;28;20138;-62
2021/06/13 03:39:44;;;;;;;1.10;1.10;;;25.80;47.40;;;;;;5046666;28;20073;-62
2021/06/13 03:42:12;;;;;;;1.17;1.10;;;25.80;47.40;;;;;;5047810;28;20048;-62
2021/06/13 03:44:41;;;;;;;1.27;1.27;;;25.80;47.40;;;;;;5046877;28;20052;-62
2021/06/13 03:47:11;;;;;;;1.10;1.10;;;25.80;47.40;;;;;;5046844;28;20049;-62
2021/06/13 03:49:39;;;;;;;1.23;1.17;;;25.80;47.40;;;;;;5047129;28;20757;-62
2021/06/13 03:52:06;;;;;;;1.65;1.55;;;25.80;47.40;;;;;;5046656;28;20084;-62
2021/06/13 03:54:34;;;;;;;1.27;1.27;;;25.80;47.40;;;;;;5047069;28;20131;-62
2021/06/13 03:57:07;;;;;;;1.20;1.20;;;25.80;47.30;;;;;;5046795;28;20136;-62
2021/06/13 03:59:36;;;;;;;1.15;1.10;;;25.80;47.40;;;;;;5046611;28;20045;-62
2021/06/13 04:02:05;;;;;;;0.93;0.93;;;25.80;47.30;;;;;;5046950;28;20103;-62
2021/06/13 04:04:43;;;;;;;0.97;0.97;;;25.80;47.30;;;;;;5047094;28;20089;-62
2021/06/13 04:07:12;;;;;;;1.17;1.17;;;25.80;47.30;;;;;;5028624;28;20076;-62
2021/06/13 04:09:42;;;;;;;1.13;1.13;;;25.80;47.30;;;;;;5046543;28;20045;-62
2021/06/13 04:12:15;;;;;;;1.50;1.40;;;25.80;47.30;;;;;;5046657;28;20136;-62
2021/06/13 04:14:44;;;;;;;1.20;1.20;;;25.80;47.30;;;;;;5046854;28;20147;-62
2021/06/13 04:17:14;;;;;;;1.25;1.25;;;25.80;47.30;;;;;;5028660;28;20047;-62
2021/06/13 04:19:44;;;;;;;1.58;1.30;;;25.80;47.30;;;;;;5046755;28;20107;-62
2021/06/13 04:22:14;;;;;;;1.10;1.10;;;25.80;47.30;;;;;;5045789;28;20131;-62
2021/06/13 04:24:42;;;;;;;1.13;1.13;;;25.80;47.30;;;;;;5046336;28;20045;-62
2021/06/13 04:27:11;;;;;;;1.00;1.00;;;25.80;47.30;;;;;;5030425;28;20077;-62
2021/06/13 04:29:38;;;;;;;1.20;1.20;;;25.80;47.20;;;;;;5025967;28;20048;-62
2021/06/13 04:32:08;;;;;;;1.80;1.00;;;25.90;47.30;;;;;;5026639;28;20045;-62
2021/06/13 04:34:37;;;;;;;1.10;1.10;;;25.90;47.30;;;;;;5025825;28;20589;-62
2021/06/13 04:37:05;;;;;;;0.93;0.90;;;25.90;47.20;;;;;;5026491;28;20489;-62
2021/06/13 04:39:33;;;;;;;0.98;0.98;;;25.90;47.20;;;;;;5026291;28;20049;-62
2021/06/13 04:42:03;;;;;;;1.10;1.10;;;25.90;47.10;;;;;;5026499;28;20463;-62
2021/06/13 04:44:30;;;;;;;1.02;1.02;;;25.90;46.90;;;;;;5030062;28;20052;-62
2021/06/13 04:46:58;;;;;;;1.15;1.15;;;26.00;47.00;;;;;;5044667;28;20081;-62
2021/06/13 04:49:47;;;;;;;1.25;1.25;;;26.00;46.90;;;;;;5040395;28;20037;-62
2021/06/13 04:52:17;;;;;;;1.05;1.00;;;26.10;46.80;;;;;;5025309;28;20531;-62
2021/06/13 04:54:52;;;;;;;;;;;26.10;46.70;;;;;;5026797;28;20079;-62
2021/06/13 04:57:44;;;;;;;1.15;1.15;;;26.10;46.70;;;;;;5025600;28;19967;-62
2021/06/13 05:00:11;;;;;;;1.55;1.02;;;26.20;46.60;;;;;;5024653;28;20561;-64
2021/06/13 05:02:39;;;;;;;1.15;1.15;;;26.20;46.50;;;;;;5026034;28;20494;-62
2021/06/13 05:05:07;;;;;;;1.15;1.10;;;26.20;46.40;;;;;;5024238;28;20045;-62
2021/06/13 05:07:34;;;;;;;1.10;1.10;;;26.30;46.40;;;;;;5025764;28;20076;-62
2021/06/13 05:10:03;;;;;;;1.02;1.02;;;26.30;46.40;;;;;;5033203;28;20068;-62
2021/06/13 05:12:30;;;;;;;1.05;1.05;;;26.30;46.30;;;;;;5045756;28;20516;-62
2021/06/13 05:14:57;;;;;;;1.23;1.13;;;26.30;46.30;;;;;;5046114;28;20475;-62
2021/06/13 05:17:25;;;;;;;1.83;1.23;;;26.30;46.20;;;;;;5045591;28;20060;-62
2021/06/13 05:19:52;;;;;;;0.90;0.90;;;26.40;46.30;;;;;;5045316;28;20479;-62
2021/06/13 05:22:19;;;;;;;1.20;1.20;;;26.40;46.20;;;;;;5045368;28;20048;-62
2021/06/13 05:25:15;;;;;;;1.10;1.10;;;26.40;46.20;;;;;;5047573;28;20071;-62
2021/06/13 05:27:43;;;;;;;1.30;1.20;;;26.40;46.00;;;;;;5045602;28;20139;-62
2021/06/13 05:30:11;;;;;;;1.00;1.00;;;26.50;46.00;;;;;;5045468;28;20055;-62
2021/06/13 05:32:40;;;;;;;1.10;1.10;;;26.50;45.90;;;;;;5045290;28;20094;-62
2021/06/13 05:35:07;;;;;;;1.10;1.10;;;26.60;45.90;;;;;;5045261;28;20143;-62
2021/06/13 05:37:35;;;;;;;1.10;1.00;;;26.60;45.70;;;;;;5045529;28;20072;-62
2021/06/13 05:40:06;;;;;;;1.25;1.25;;;26.70;45.70;;;;;;5045089;28;20080;-62
2021/06/13 05:42:33;;;;;;;1.10;1.10;;;26.70;45.60;;;;;;5045370;28;20143;-62
2021/06/13 05:45:00;;;;;;;1.55;1.40;;;26.70;45.60;;;;;;5045494;28;20464;-62
2021/06/13 05:47:27;;;;;;;1.10;1.10;;;26.70;45.50;;;;;;5027005;28;20174;-62
2021/06/13 05:49:55;;;;;;;1.08;1.08;;;26.80;45.50;;;;;;5045977;28;20060;-61
2021/06/13 05:52:22;;;;;;;1.15;1.15;;;26.80;45.40;;;;;;5044595;28;20080;-62
2021/06/13 05:54:49;;;;;;;0.93;0.93;;;26.80;45.40;;;;;;5045414;28;20419;-62
2021/06/13 05:57:16;;;;;;;1.20;0.90;;;26.80;45.40;;;;;;5045995;28;20147;-62
2021/06/13 05:59:43;;;;;;;0.90;0.90;;;26.80;45.90;;;;;;5049162;28;20139;-62
2021/06/13 06:02:11;;;;;;;1.27;1.17;;;26.90;45.40;;;;;;5048987;28;20088;-62
2021/06/13 06:04:38;;;;;;;1.15;1.05;;;26.90;45.30;;;;;;5049339;28;20136;-62
2021/06/13 06:07:05;;;;;;;0.93;0.93;;;26.90;45.30;;;;;;5048905;28;20091;-62
2021/06/13 06:09:33;;;;;;;0.90;0.90;;;26.90;45.30;;;;;;5048829;28;20123;-62
2021/06/13 06:12:00;;;;;;;0.95;0.95;;;26.90;45.20;;;;;;5049248;28;20041;-62
2021/06/13 06:14:28;;;;;;;1.10;1.10;;;26.90;45.20;;;;;;5048441;28;20080;-62
2021/06/13 06:16:55;;;;;;;1.10;1.10;;;26.90;45.20;;;;;;5049091;28;20074;-62
2021/06/13 06:19:22;;;;;;;0.75;0.75;;;26.90;45.10;;;;;;5048943;28;20095;-62
2021/06/13 06:21:49;;;;;;;1.13;1.13;;;27.00;45.20;;;;;;5048358;28;20595;-62
2021/06/13 06:24:17;;;;;;;1.20;1.10;;;27.00;45.20;;;;;;5048464;28;20091;-62
2021/06/13 06:26:44;;;;;;;0.95;0.95;;;27.00;45.10;;;;;;5048739;28;20081;-62
2021/06/13 06:29:11;;;;;;;1.00;1.00;;;27.00;45.00;;;;;;5047724;28;20112;-62
2021/06/13 06:31:38;;;;;;;1.85;1.20;;;27.10;45.00;;;;;;5049289;28;20048;-62
2021/06/13 06:34:06;;;;;;;1.30;1.30;;;27.10;45.00;;;;;;5048690;28;20041;-62
2021/06/13 06:36:33;;;;;;;1.08;1.08;;;27.10;44.90;;;;;;5048179;28;20136;-62
2021/06/13 06:39:01;;;;;;;1.00;0.98;;;27.10;44.90;;;;;;5048373;28;20049;-62
2021/06/13 06:41:28;;;;;;;1.05;1.05;;;27.10;44.90;;;;;;5048277;28;20099;-62
2021/06/13 06:43:55;;;;;;;0.95;0.95;;;27.10;44.90;;;;;;5048075;28;20122;-62
2021/06/13 06:46:22;;;;;;;1.10;1.10;;;27.10;44.80;;;;;;5048499;28;20111;-62
2021/06/13 06:48:50;;;;;;;1.20;1.20;;;27.10;44.80;;;;;;5048085;28;20127;-62
2021/06/13 06:51:17;;;;;;;1.25;0.90;;;27.10;44.80;;;;;;5048397;28;20444;-62
2021/06/13 06:53:44;;;;;;;0.90;0.90;;;27.20;45.30;;;;;;5047727;28;20506;-62
2021/06/13 06:56:11;;;;;;;1.25;1.15;;;27.20;44.70;;;;;;5048400;28;20049;-62
2021/06/13 06:58:38;;;;;;;1.00;1.00;;;27.20;44.70;;;;;;5047703;28;20150;-62
2021/06/13 07:01:06;;;;;;;0.90;0.90;;;27.20;44.70;;;;;;5048447;28;20049;-62
2021/06/13 07:03:34;;;;;;;1.10;1.10;;;27.20;44.60;;;;;;5047193;28;20414;-62
2021/06/13 07:06:02;;;;;;;1.17;1.17;;;27.20;44.60;;;;;;5048183;28;20284;-62
2021/06/13 07:08:29;;;;;;;1.05;1.05;;;27.20;44.50;;;;;;5047413;28;20045;-62
2021/06/13 07:10:56;;;;;;;1.20;1.10;;;27.20;44.40;;;;;;5046611;28;20048;-62
2021/06/13 07:13:25;;;;;;;0.80;0.80;;;27.20;44.30;;;;;;5048188;28;20322;-62
2021/06/13 07:15:52;;;;;;;0.80;0.80;;;27.10;44.30;;;;;;5048318;28;20103;-62
2021/06/13 07:18:20;;;;;;;1.17;1.00;;;27.00;44.30;;;;;;5047102;28;20325;-62
2021/06/13 07:20:47;;;;;;;0.70;0.70;;;26.90;44.20;;;;;;5047675;28;20084;-62
2021/06/13 07:23:14;;;;;;;1.00;1.00;;;26.70;44.20;;;;;;5043753;28;20080;-62
2021/06/13 07:25:42;;;;;;;0.85;0.82;;;26.60;44.50;;;;;;5027532;28;20333;-62
2021/06/13 07:28:09;;;;;;;1.60;1.23;;;26.40;44.60;;;;;;5010268;28;20526;-62
2021/06/13 07:30:36;;;;;;;0.82;0.70;;;26.30;45.00;;;;;;5027340;28;20072;-64
2021/06/13 07:33:04;;;;;;;0.93;0.93;;;26.10;45.10;;;;;;5027687;28;20136;-62
2021/06/13 07:35:32;;;;;;;0.98;0.98;;;26.00;45.30;;;;;;5026974;28;20633;-62
2021/06/13 07:38:01;;;;;;;1.10;1.00;;;25.80;45.70;;;;;;5044607;28;20052;-62
2021/06/13 07:40:30;;;;;;;1.58;1.05;;;25.60;45.90;;;;;;5046684;28;20157;-62
2021/06/13 07:42:57;;;;;;;1.17;1.13;;;25.50;46.10;;;;;;5047111;28;20140;-62
2021/06/13 07:45:25;;;;;;;0.85;0.75;;;25.40;46.40;;;;;;5047428;28;20087;-62
2021/06/13 07:47:53;;;;;;;0.90;0.90;;;25.10;46.60;;;;;;5046683;28;20080;-62
2021/06/13 07:50:21;;;;;;;0.90;0.90;;;25.00;47.00;;;;;;5047227;28;20041;-62
2021/06/13 07:52:49;;;;;;;0.88;0.88;;;24.90;47.30;;;;;;5047331;28;20495;-62
2021/06/13 07:55:18;;;;;;;1.00;1.00;;;24.70;47.70;;;;;;5046846;28;20469;-61
2021/06/13 07:57:46;;;;;;;1.23;1.02;;;24.70;48.10;;;;;;5047596;28;20132;-61
2021/06/13 08:00:18;;;;;;;0.98;0.98;;;24.60;48.30;;;;;;5046558;28;20136;-62
2021/06/13 08:02:52;;;;;;;1.98;1.05;;;24.50;48.50;;;;;;5047012;28;20525;-62
2021/06/13 08:05:27;;;;;;;1.27;1.20;;;24.50;48.50;;;;;;5046771;28;20045;-62
2021/06/13 08:07:57;;;;;;;3.55;0.80;;;24.40;48.40;;;;;;5046617;28;20048;-62
2021/06/13 08:10:27;;;;;;;1.00;0.95;;;24.30;48.70;;;;;;5046306;28;20068;-62
2021/06/13 08:12:55;;;;;;;1.33;1.20;;;24.30;48.70;;;;;;5046923;28;20140;-62
2021/06/13 08:15:23;;;;;;;2.40;1.10;;;24.20;48.80;;;;;;5046046;28;20080;-62
2021/06/13 08:17:51;;;;;;;1.73;1.15;;;24.20;48.80;;;;;;5046619;28;20482;-62
2021/06/13 08:20:18;;;;;;;0.80;0.80;;;24.10;49.10;;;;;;5046295;28;20051;-62
2021/06/13 08:22:46;;;;;;;0.90;0.88;;;24.10;48.90;;;;;;5046486;28;20456;-62
2021/06/13 08:25:15;;;;;;;1.30;1.15;;;24.10;48.90;;;;;;5045952;28;20045;-62
2021/06/13 08:27:42;;;;;;;1.00;1.00;;;24.10;49.10;;;;;;5046676;28;20045;-61
2021/06/13 08:30:12;;;;;;;1.27;1.17;;;24.10;49.20;;;;;;5045765;28;20087;-62
2021/06/13 08:32:40;;;;;;;1.08;0.98;;;24.00;49.10;;;;;;5045445;28;20140;-62
2021/06/13 08:35:08;;;;;;;1.05;0.95;;;24.00;49.10;;;;;;5046084;28;20055;-62
2021/06/13 08:37:36;;;;;;;1.05;1.05;;;23.90;49.20;;;;;;5046036;28;20148;-61
2021/06/13 08:40:06;;;;;;;1.13;1.02;;;23.90;49.00;;;;;;5046072;28;20490;-62
2021/06/13 08:42:34;;;;;;;1.00;1.00;;;23.90;49.10;;;;;;5045816;28;20481;-62
2021/06/13 08:45:03;;;;;;;1.83;1.17;;;23.90;49.10;;;;;;5045990;28;20045;-62
2021/06/13 08:47:31;;;;;;;1.20;1.20;;;23.90;49.30;;;;;;5046039;28;20132;-62
2021/06/13 08:49:58;;;;;;;1.70;0.82;;;23.90;49.30;;;;;;5046233;28;20049;-62
2021/06/13 08:52:25;;;;;;;0.93;0.93;;;23.90;49.40;;;;;;5045288;28;20076;-61
2021/06/13 08:54:53;;;;;;;1.13;0.95;;;23.90;49.00;;;;;;5045915;28;20081;-62
2021/06/13 08:57:20;;;;;;;1.58;1.10;;;23.90;49.00;;;;;;5045870;28;20048;-62
2021/06/13 08:59:48;;;;;;;1.27;0.98;;;23.90;49.20;;;;;;5045538;28;20482;-61
2021/06/13 09:02:16;;;;;;;1.27;1.17;;;23.90;49.10;;;;;;5045533;28;20109;-61
2021/06/13 09:04:43;;;;;;;0.90;0.90;;;23.90;49.20;;;;;;5045694;28;20436;-62
2021/06/13 09:07:15;;;;;;;2.63;1.40;;;23.80;49.30;;;;;;5045752;28;20420;-61
2021/06/13 09:09:43;;;;;;;0.98;0.98;;;23.90;49.20;;;;;;5045593;28;20069;-62
2021/06/13 09:12:11;;;;;;;1.05;1.00;;;23.80;49.30;;;;;;5045710;28;20048;-62
2021/06/13 09:14:43;;;;;;;0.90;0.90;;;23.80;49.20;;;;;;5043712;28;20044;-62
2021/06/13 09:17:12;;;;;;;1.40;1.30;;;23.80;49.00;;;;;;5044866;28;20045;-62
2021/06/13 09:20:19;;;;;;;1.02;0.80;;;23.80;49.00;;;;;;5044498;28;20139;-62
2021/06/13 09:23:12;;;;;;;0.95;0.95;;;23.80;49.00;;;;;;5030024;28;20132;-61
2021/06/13 09:25:42;;;;;;;1.13;1.05;;;23.80;49.00;;;;;;5035777;28;20465;-62
2021/06/13 09:28:13;;;;;;;2.55;0.88;;;23.80;49.10;;;;;;5044818;28;20048;-62
2021/06/13 09:30:43;;;;;;;0.90;0.90;;;23.80;49.00;;;;;;5044914;28;20103;-61
2021/06/13 09:33:12;;;;;;;;;;;23.80;49.20;;;;;;5045747;28;20102;-62
2021/06/13 09:35:43;;;;;;;0.98;0.98;;;23.70;49.20;;;;;;5048514;28;19936;-62
2021/06/13 09:38:17;;;;;;;;;;;23.70;49.20;;;;;;5050165;28;20083;-62
2021/06/13 09:40:52;;;;;;;2.17;1.00;;;23.70;49.40;;;;;;5048147;28;20015;-62
2021/06/13 09:43:31;;;;;;;1.67;1.00;;;23.70;49.30;;;;;;5049496;28;20049;-62
2021/06/13 09:46:12;;;;;;;1.55;1.00;;;23.70;48.90;;;;;;5040151;28;20128;-61
2021/06/13 09:48:45;;;;;;;1.00;1.00;;;23.60;48.90;;;;;;5048252;28;20057;-61
2021/06/13 09:51:18;;;;;;;1.17;1.10;;;23.60;49.10;;;;;;5048488;28;20040;-62
2021/06/13 09:53:47;;;;;;;0.82;0.82;;;23.60;49.20;;;;;;5048354;28;20057;-62
2021/06/13 09:56:18;;;;;;;1.33;1.15;;;23.60;48.90;;;;;;5031077;28;20041;-62
2021/06/13 09:58:52;;;;;;;1.00;1.00;;;23.60;48.90;;;;;;5049466;28;20136;-62
2021/06/13 10:01:22;;;;;;;0.75;0.75;;;23.60;48.80;;;;;;5028715;28;20132;-61
2021/06/13 10:03:49;;;;;;;0.90;0.90;;;23.60;48.90;;;;;;5044130;28;20068;-61
2021/06/13 10:06:18;;;;;;;0.90;0.90;;;23.60;48.90;;;;;;5048903;28;20045;-61
2021/06/13 10:08:54;;;;;;;3.15;1.17;;;23.60;48.90;;;;;;5048777;28;20537;-61
2021/06/13 10:11:21;;;;;;;0.68;0.68;;;23.60;48.80;;;;;;5048628;28;20051;-61
2021/06/13 10:13:52;;;;;;;0.80;0.80;;;23.60;48.70;;;;;;5048179;28;20079;-62
2021/06/13 10:16:26;;;;;;;0.95;0.80;;;23.60;48.90;;;;;;5048461;28;20044;-62
2021/06/13 10:18:56;;;;;;;3.40;0.60;;;23.60;48.80;;;;;;5048715;28;20479;-61
2021/06/13 10:21:31;;;;;;;0.90;0.80;;;23.50;48.60;;;;;;5048916;28;20514;-61
2021/06/13 10:23:58;;;;;;;0.70;0.70;;;23.50;48.80;;;;;;5048221;28;20072;-62
2021/06/13 10:26:26;;;;;;;1.35;1.10;;;23.50;48.70;;;;;;5048862;28;20056;-62
2021/06/13 10:28:56;;;;;;;0.95;0.95;;;23.50;48.90;;;;;;5030945;28;20057;-61
2021/06/13 10:31:23;;;;;;;1.42;1.00;;;23.50;48.90;;;;;;5048728;28;20068;-62
2021/06/13 10:33:51;;;;;;;1.85;1.23;;;23.50;48.90;;;;;;5048161;28;20048;-61
2021/06/13 10:36:18;;;;;;;1.10;1.00;;;23.50;49.30;;;;;;5047985;28;20136;-61
2021/06/13 10:38:46;;;;;;;1.00;0.90;;;23.50;48.40;;;;;;5048081;28;20144;-62
2021/06/13 10:41:13;;;;;;;0.88;0.85;;;23.50;48.60;;;;;;5048504;28;20140;-62
2021/06/13 10:43:41;;;;;;;0.73;0.73;;;23.50;48.60;;;;;;5046655;28;20151;-62
2021/06/13 10:46:15;;;;;;;2.63;0.80;;;23.50;48.40;;;;;;5047614;28;20128;-62
2021/06/13 10:48:48;;;;;;;1.65;0.90;;;23.40;48.50;;;;;;5048100;28;20183;-62
2021/06/13 10:51:43;;;;;;;1.55;0.70;;;23.40;48.20;;;;;;5048319;28;20079;-62
2021/06/13 10:54:35;;;;;;;0.68;0.68;;;23.40;48.20;;;;;;5047832;28;20498;-61
2021/06/13 10:57:24;;;;;;;0.85;0.82;;;23.40;48.20;;;;;;5048389;28;20136;-62
2021/06/13 10:59:58;;;;;;;0.80;0.60;;;23.40;48.20;;;;;;5046684;28;20053;-61
2021/06/13 11:02:49;;;;;;;1.10;1.00;;;23.30;48.10;;;;;;5047928;28;20088;-62
2021/06/13 11:05:45;;;;;;;1.95;0.57;;;23.40;48.00;;;;;;5048009;28;20578;-62
2021/06/13 11:08:13;;;;;;;0.82;0.82;;;23.40;47.90;;;;;;5047761;28;20053;-62
2021/06/13 11:10:41;;;;;;;2.08;0.77;;;23.40;47.80;;;;;;5048036;28;20490;-62
2021/06/13 11:13:22;;;;;;;0.57;0.57;;;23.40;47.70;;;;;;5047641;28;20283;-62
2021/06/13 11:15:51;;;;;;;4.65;0.85;;;23.40;47.80;;;;;;5048048;28;20045;-62
2021/06/13 11:18:29;;;;;;;0.95;0.75;;;23.30;47.60;;;;;;5047822;28;20445;-61
2021/06/13 11:21:06;;;;;;;0.50;0.50;;;23.30;47.90;;;;;;5047949;28;20452;-61
2021/06/13 11:23:42;;;;;;;0.90;0.90;;;23.30;48.10;;;;;;5047421;28;20095;-62
2021/06/13 11:26:28;;;;;;;0.90;0.77;;;23.30;47.90;;;;;;5047677;28;20069;-62
2021/06/13 11:28:55;;;;;;;0.88;0.55;;;23.30;47.30;;;;;;5047481;28;20126;-62
2021/06/13 11:31:24;;;;;;;0.75;0.70;;;23.30;47.50;;;;;;5047771;28;20464;-62
2021/06/13 11:34:03;;;;;;;2.03;0.70;;;23.30;47.50;;;;;;5047337;28;20072;-62
2021/06/13 11:36:33;;;;;;;1.75;0.63;;;23.30;47.80;;;;;;5047287;28;20509;-62
2021/06/13 11:39:21;;;;;;;0.60;0.60;;;23.30;47.40;;;;;;5047414;28;20049;-62
2021/06/13 11:41:50;;;;;;;0.70;0.70;;;23.30;47.40;;;;;;5046306;28;20136;-62
2021/06/13 11:44:40;;;;;;;2.53;0.80;;;23.30;47.20;;;;;;5046366;28;20057;-61
2021/06/13 11:47:29;;;;;;;1.58;0.55;;;23.30;47.30;;;;;;5045790;28;20077;-62
2021/06/13 11:49:57;;;;;;;1.27;1.00;;;23.30;47.10;;;;;;5047050;28;20055;-62
2021/06/13 11:52:48;;;;;;;0.80;0.80;;;23.30;47.10;;;;;;5046910;28;20051;-62
2021/06/13 11:55:17;;;;;;;1.23;0.47;;;23.20;46.90;;;;;;5045706;28;20143;-62
2021/06/13 11:57:44;;;;;;;0.70;0.70;;;23.20;46.90;;;;;;5047259;28;20526;-62
2021/06/13 12:00:15;;;;;;;0.52;0.50;;;23.20;46.70;;;;;;5049777;28;20119;-62
2021/06/13 12:02:43;;;;;;;1.50;0.80;;;23.20;46.80;;;;;;5043914;28;20088;-62
2021/06/13 12:05:10;;;;;;;0.40;0.40;;;23.20;46.60;;;;;;5046720;28;20049;-62
2021/06/13 12:07:39;;;;;;;0.73;0.60;;;23.20;46.60;;;;;;5046657;28;20052;-62
2021/06/13 12:10:28;;;;;;;0.60;0.60;;;23.20;46.90;;;;;;5046248;28;20442;-62
2021/06/13 12:13:11;;;;;;;0.77;0.40;;;23.20;47.10;;;;;;5046552;28;20084;-61
2021/06/13 12:15:39;;;;;;;0.50;0.50;;;23.30;47.10;;;;;;5046207;28;20582;-62
2021/06/13 12:18:15;;;;;;;1.05;0.73;;;23.20;46.90;;;;;;5046581;28;20056;-62
2021/06/13 12:20:54;;;;;;;0.77;0.77;;;23.20;47.00;;;;;;5046335;28;20049;-62
2021/06/13 12:23:31;;;;;;;1.10;0.80;;;23.20;47.00;;;;;;5046345;28;20044;-62
2021/06/13 12:28:46;;;;;;;2.22;0.60;;;23.20;46.70;;;;;;5046148;28;20056;-62
2021/06/13 12:31:13;;;;;;;0.32;0.32;;;23.20;46.60;;;;;;5046494;28;20174;-62
2021/06/13 12:33:40;;;;;;;1.17;0.55;;;23.20;46.90;;;;;;5046260;28;20478;-62
2021/06/13 12:36:09;;;;;;;0.65;0.52;;;23.20;46.50;;;;;;5046345;28;20464;-61
2021/06/13 12:38:37;;;;;;;0.70;0.50;;;23.20;46.60;;;;;;5045888;28;20573;-62
2021/06/13 12:41:05;;;;;;;0.75;0.60;;;23.20;46.60;;;;;;5046161;28;20557;-62
2021/06/13 12:43:38;;;;;;;1.45;0.52;;;23.20;46.70;;;;;;5028374;28;20132;-62
2021/06/13 12:46:07;;;;;;;1.95;0.40;;;23.20;46.40;;;;;;5045959;28;20051;-62
2021/06/13 12:48:35;;;;;;;0.50;0.50;;;23.20;46.60;;;;;;5045907;28;20080;-62
2021/06/13 12:51:03;;;;;;;1.50;0.35;;;23.20;46.60;;;;;;5045691;28;20506;-62
2021/06/13 12:53:33;;;;;;;0.82;0.70;;;23.20;46.50;;;;;;5045913;28;20091;-62
2021/06/13 12:56:01;;;;;;;0.47;0.47;;;23.20;46.50;;;;;;5045986;28;20045;-62
2021/06/13 12:58:40;;;;;;;0.88;0.50;;;23.20;46.70;;;;;;5045681;28;20079;-62
2021/06/13 13:01:09;;;;;;;0.50;0.50;;;23.20;46.50;;;;;;5045920;28;20055;-62
2021/06/13 13:03:42;;;;;;;0.73;0.50;;;23.20;46.50;;;;;;5045885;28;20059;-62
2021/06/13 13:06:14;;;;;;;0.65;0.43;;;23.30;46.50;;;;;;5045458;28;20052;-61
2021/06/13 13:08:46;;;;;;;0.52;0.52;;;23.30;46.60;;;;;;5045279;28;20128;-62